Time;durP1;ratioP1;P1;durP2;ratioP2;P2;SDS_P1;SDS_P2;PMS_P1;PMS_P2;Temp;Humidity;BMP_temperature;BMP_pressure;BME280_temperature;BME280_humidity;BME280_pressure;Samples;Min_cycle;Max_cycle;Signal;HPM_P1;HPM_P2
2022/01/04 00:02:24;;;;;;;49.97;20.48;;;28.80;70.60;;;;;;5044794;28;20314;-51
2022/01/04 00:04:51;;;;;;;49.78;24.85;;;28.80;70.70;;;;;;5049926;28;20095;-49
2022/01/04 00:07:17;;;;;;;43.22;22.35;;;28.80;70.50;;;;;;5048180;28;20022;-51
2022/01/04 00:09:45;;;;;;;48.20;24.17;;;28.70;70.20;;;;;;5044952;28;20022;-50
2022/01/04 00:14:57;;;;;;;52.47;27.13;;;28.70;70.10;;;;;;5044971;28;20120;-46
2022/01/04 00:17:24;;;;;;;66.88;37.30;;;28.70;70.00;;;;;;5044367;28;20029;-56
2022/01/04 00:19:50;;;;;;;70.18;40.85;;;28.80;70.00;;;;;;5059528;28;20030;-45
2022/01/04 00:22:17;;;;;;;63.67;37.05;;;28.70;69.80;;;;;;5044035;28;20310;-47
2022/01/04 00:24:45;;;;;;;62.42;35.95;;;28.70;69.70;;;;;;5059464;28;20068;-54
2022/01/04 00:27:12;;;;;;;53.15;28.55;;;28.70;69.70;;;;;;5043847;28;20085;-49
2022/01/04 00:29:38;;;;;;;55.85;32.80;;;28.70;69.50;;;;;;5044234;28;20079;-48
2022/01/04 00:32:07;;;;;;;52.25;30.00;;;28.70;69.50;;;;;;5044020;28;20050;-48
2022/01/04 00:34:33;;;;;;;53.58;29.30;;;28.70;69.20;;;;;;5044276;28;20310;-51
2022/01/04 00:37:01;;;;;;;49.65;28.80;;;28.70;69.10;;;;;;5059202;28;20018;-54
2022/01/04 00:39:28;;;;;;;52.00;28.02;;;28.70;69.10;;;;;;5044065;28;20095;-47
2022/01/04 00:41:55;;;;;;;40.30;21.17;;;28.60;69.00;;;;;;5043826;28;20021;-47
2022/01/04 00:44:21;;;;;;;34.72;18.80;;;28.60;68.70;;;;;;5066561;28;20025;-48
2022/01/04 00:46:48;;;;;;;38.28;17.75;;;28.60;69.10;;;;;;5062793;28;20020;-46
2022/01/04 00:49:17;;;;;;;29.98;14.95;;;28.60;68.40;;;;;;5063472;28;20033;-51
2022/01/04 00:52:06;;;;;;;24.48;11.05;;;28.60;68.20;;;;;;5062622;28;20021;-45
2022/01/04 00:54:35;;;;;;;22.50;11.13;;;28.60;67.70;;;;;;5050716;28;20051;-47
2022/01/04 00:57:03;;;;;;;25.23;9.70;;;28.60;67.70;;;;;;5063684;28;20047;-50
2022/01/04 00:59:31;;;;;;;25.58;9.32;;;28.60;67.60;;;;;;5064169;28;20031;-53
2022/01/04 01:01:58;;;;;;;22.98;8.77;;;28.60;67.30;;;;;;5063690;28;20045;-45
2022/01/04 01:04:24;;;;;;;17.20;7.28;;;28.50;66.50;;;;;;5063696;28;20032;-48
2022/01/04 01:06:51;;;;;;;18.00;7.20;;;28.50;66.60;;;;;;5063555;28;20258;-48
2022/01/04 01:09:19;;;;;;;13.68;6.60;;;28.50;66.50;;;;;;5063674;28;20074;-46
2022/01/04 01:11:46;;;;;;;26.10;6.38;;;28.50;66.30;;;;;;5063723;28;20032;-46
2022/01/04 01:14:12;;;;;;;12.85;6.00;;;28.50;66.10;;;;;;5063996;28;20059;-50
2022/01/04 01:16:39;;;;;;;16.83;5.53;;;28.50;66.00;;;;;;5062934;28;20329;-49
2022/01/04 01:19:06;;;;;;;18.13;5.75;;;28.50;65.70;;;;;;5063077;28;20037;-48
2022/01/04 01:21:32;;;;;;;15.52;5.13;;;28.50;65.80;;;;;;5063190;28;20048;-47
2022/01/04 01:24:00;;;;;;;14.30;4.97;;;28.50;65.40;;;;;;5062691;28;20040;-53
2022/01/04 01:26:42;;;;;;;10.43;4.78;;;28.50;65.50;;;;;;5051286;28;20020;-51
2022/01/04 01:29:09;;;;;;;8.73;4.68;;;28.50;65.00;;;;;;5054976;28;20114;-50
2022/01/04 01:31:35;;;;;;;11.88;4.80;;;28.40;64.60;;;;;;5043185;28;20080;-59
2022/01/04 01:34:04;;;;;;;10.18;4.25;;;28.40;64.50;;;;;;5025904;28;20037;-51
2022/01/04 01:36:31;;;;;;;22.00;4.53;;;28.40;64.20;;;;;;5043146;28;20017;-48
2022/01/04 01:38:57;;;;;;;20.23;4.60;;;28.40;64.20;;;;;;5043481;28;20234;-46
2022/01/04 01:41:25;;;;;;;18.10;4.68;;;28.40;64.20;;;;;;5043301;28;20025;-51
2022/01/04 01:43:52;;;;;;;12.55;4.65;;;28.30;63.90;;;;;;5043498;28;20025;-44
2022/01/04 01:46:20;;;;;;;11.48;4.40;;;28.30;63.70;;;;;;5043243;28;20337;-48
2022/01/04 01:48:46;;;;;;;11.05;4.00;;;28.30;63.60;;;;;;5043460;28;20096;-48
2022/01/04 01:51:16;;;;;;;21.67;4.60;;;28.30;63.30;;;;;;5043092;28;20072;-49
2022/01/04 01:53:46;;;;;;;24.98;4.78;;;28.30;63.30;;;;;;5026613;28;20102;-50
2022/01/04 01:56:13;;;;;;;17.63;4.40;;;28.20;63.10;;;;;;5043382;28;20029;-45
2022/01/04 01:58:43;;;;;;;22.75;8.43;;;28.20;63.80;;;;;;5025977;28;20037;-51
2022/01/04 02:01:11;;;;;;;20.85;7.03;;;28.20;63.20;;;;;;5043386;28;20040;-48
2022/01/04 02:03:41;;;;;;;16.95;6.00;;;28.20;63.10;;;;;;5043345;28;20033;-49
2022/01/04 02:06:07;;;;;;;19.40;5.30;;;28.20;63.00;;;;;;5025070;28;20052;-50
2022/01/04 02:08:37;;;;;;;69.60;7.13;;;28.20;63.00;;;;;;5043157;28;20057;-46
2022/01/04 02:11:04;;;;;;;19.73;4.85;;;28.20;63.00;;;;;;5043244;28;20017;-48
2022/01/04 02:13:35;;;;;;;19.23;4.97;;;28.20;63.00;;;;;;5045672;28;20225;-44
2022/01/04 02:16:02;;;;;;;16.52;4.93;;;28.20;62.70;;;;;;5049000;28;20032;-47
2022/01/04 02:18:33;;;;;;;17.55;5.78;;;28.20;62.50;;;;;;5061761;28;20052;-45
2022/01/04 02:20:59;;;;;;;15.73;6.50;;;28.20;62.20;;;;;;5043881;28;20025;-46
2022/01/04 02:23:26;;;;;;;16.02;6.28;;;28.20;62.10;;;;;;5065384;28;20037;-49
2022/01/04 02:25:53;;;;;;;15.57;5.95;;;28.20;61.90;;;;;;5062306;28;20072;-47
2022/01/04 02:28:20;;;;;;;20.40;5.93;;;28.20;62.00;;;;;;5064241;28;20084;-43
2022/01/04 02:30:48;;;;;;;12.05;5.28;;;28.10;61.70;;;;;;5064635;28;20097;-46
2022/01/04 02:33:15;;;;;;;17.38;5.82;;;28.10;61.30;;;;;;5061997;28;20041;-44
2022/01/04 02:35:42;;;;;;;13.70;5.05;;;28.10;61.20;;;;;;5064218;28;20080;-50
2022/01/04 02:38:10;;;;;;;14.00;4.15;;;28.10;61.10;;;;;;5061914;28;20058;-45
2022/01/04 02:40:38;;;;;;;11.98;4.65;;;28.10;60.90;;;;;;5063601;28;20080;-50
2022/01/04 02:43:05;;;;;;;9.95;4.40;;;28.10;60.90;;;;;;5045760;28;20020;-46
2022/01/04 02:45:32;;;;;;;11.77;4.35;;;28.10;60.60;;;;;;5047344;28;20044;-47
2022/01/04 02:47:59;;;;;;;9.52;4.30;;;28.10;60.60;;;;;;5064447;28;20052;-49
2022/01/04 02:50:26;;;;;;;17.60;4.82;;;28.10;60.70;;;;;;5064129;28;20025;-52
2022/01/04 02:52:53;;;;;;;14.00;4.35;;;28.10;60.30;;;;;;5065247;28;20029;-54
2022/01/04 02:55:20;;;;;;;12.32;4.15;;;28.10;60.60;;;;;;5065179;28;20021;-48
2022/01/04 02:57:47;;;;;;;10.77;3.95;;;28.00;60.20;;;;;;5065085;28;20013;-45
2022/01/04 03:00:15;;;;;;;10.45;4.15;;;28.00;60.40;;;;;;5065637;28;20300;-43
2022/01/04 03:02:43;;;;;;;12.70;4.57;;;28.00;60.20;;;;;;5063490;28;20028;-46
2022/01/04 03:05:11;;;;;;;10.40;4.20;;;28.00;60.50;;;;;;5059689;28;20033;-48
2022/01/04 03:07:37;;;;;;;9.00;4.10;;;28.00;60.80;;;;;;5065721;28;20088;-55
2022/01/04 03:10:05;;;;;;;9.65;3.97;;;28.00;61.00;;;;;;5066089;28;20066;-49
2022/01/04 03:12:35;;;;;;;11.50;3.95;;;28.00;60.90;;;;;;5065444;28;20021;-44
2022/01/04 03:15:03;;;;;;;13.35;3.78;;;28.00;61.00;;;;;;5066113;28;20031;-44
2022/01/04 03:17:29;;;;;;;7.50;3.90;;;28.00;60.90;;;;;;5063966;28;20021;-50
2022/01/04 03:19:56;;;;;;;8.02;3.50;;;28.00;60.90;;;;;;5054969;28;20029;-46
2022/01/04 03:22:22;;;;;;;10.60;3.80;;;28.00;60.90;;;;;;5045443;28;20032;-53
2022/01/04 03:24:49;;;;;;;8.35;3.92;;;28.00;60.80;;;;;;5045829;28;20025;-53
2022/01/04 03:27:15;;;;;;;6.85;4.03;;;28.00;60.60;;;;;;5045256;28;20021;-42
2022/01/04 03:29:42;;;;;;;7.55;3.53;;;28.00;60.50;;;;;;5045982;28;20179;-45
2022/01/04 03:32:09;;;;;;;4.97;3.42;;;28.00;60.30;;;;;;5055993;28;20049;-47
2022/01/04 03:34:35;;;;;;;6.05;3.83;;;28.00;60.40;;;;;;5064288;28;20029;-48
2022/01/04 03:37:02;;;;;;;6.05;3.58;;;28.00;60.60;;;;;;5059172;28;20031;-43
2022/01/04 03:39:28;;;;;;;5.50;3.80;;;28.00;60.70;;;;;;5045759;28;20112;-53
2022/01/04 03:41:55;;;;;;;7.63;3.97;;;28.00;60.50;;;;;;5052099;28;20016;-47
2022/01/04 03:44:21;;;;;;;7.00;4.10;;;28.00;60.50;;;;;;5063967;28;20031;-43
2022/01/04 03:46:50;;;;;;;8.45;3.83;;;28.00;60.60;;;;;;5065077;28;20017;-43
2022/01/04 03:49:17;;;;;;;11.95;3.80;;;28.00;60.60;;;;;;5065160;28;20028;-44
2022/01/04 03:51:44;;;;;;;8.85;3.60;;;28.00;60.70;;;;;;5065017;28;20044;-50
2022/01/04 03:54:11;;;;;;;10.40;4.00;;;28.00;60.40;;;;;;5065143;28;20043;-42
2022/01/04 03:56:37;;;;;;;6.35;3.58;;;27.90;60.30;;;;;;5064849;28;20013;-51
2022/01/04 03:59:05;;;;;;;9.98;4.15;;;27.90;60.50;;;;;;5065125;28;20031;-48
2022/01/04 04:01:31;;;;;;;7.82;3.65;;;27.90;60.40;;;;;;5064829;28;20024;-41
2022/01/04 04:03:58;;;;;;;5.05;3.45;;;27.90;60.60;;;;;;5064847;28;20032;-51
2022/01/04 04:06:24;;;;;;;5.45;3.38;;;27.90;60.40;;;;;;5064744;28;20337;-42
2022/01/04 04:08:51;;;;;;;9.30;3.78;;;27.90;60.10;;;;;;5064781;28;20028;-45
2022/01/04 04:11:18;;;;;;;6.88;3.22;;;27.90;60.20;;;;;;5064665;28;20024;-50
2022/01/04 04:13:44;;;;;;;6.57;3.47;;;27.90;60.20;;;;;;5064727;28;20027;-43
2022/01/04 04:16:11;;;;;;;7.68;3.30;;;27.90;60.20;;;;;;5064683;28;20259;-53
2022/01/04 04:18:37;;;;;;;6.05;3.40;;;27.90;60.10;;;;;;5064577;28;20035;-46
2022/01/04 04:21:04;;;;;;;7.07;3.63;;;27.90;60.30;;;;;;5064377;28;20062;-42
2022/01/04 04:23:31;;;;;;;7.38;3.45;;;27.90;60.30;;;;;;5064519;28;20055;-50
2022/01/04 04:25:57;;;;;;;7.53;3.83;;;27.90;60.30;;;;;;5064414;28;20025;-45
2022/01/04 04:28:24;;;;;;;6.53;3.60;;;27.80;60.30;;;;;;5064223;28;20033;-45
2022/01/04 04:30:50;;;;;;;5.88;3.22;;;27.80;60.30;;;;;;5064490;28;20332;-47
2022/01/04 04:33:17;;;;;;;6.78;3.50;;;27.90;60.20;;;;;;5064206;28;20075;-42
2022/01/04 04:35:43;;;;;;;6.18;3.40;;;27.80;60.20;;;;;;5064108;28;20063;-47
2022/01/04 04:38:10;;;;;;;6.70;3.60;;;27.80;60.40;;;;;;5064368;28;20021;-44
2022/01/04 04:40:36;;;;;;;6.30;3.40;;;27.80;60.40;;;;;;5064210;28;20029;-44
2022/01/04 04:43:03;;;;;;;6.40;3.65;;;27.80;60.20;;;;;;5063948;28;20041;-45
2022/01/04 04:45:30;;;;;;;6.45;3.67;;;27.80;60.30;;;;;;5063964;28;20028;-43
2022/01/04 04:47:57;;;;;;;7.90;3.40;;;27.80;60.40;;;;;;5064167;28;20294;-48
2022/01/04 04:50:23;;;;;;;6.50;3.17;;;27.80;60.20;;;;;;5063915;28;20242;-43
2022/01/04 04:52:50;;;;;;;4.63;3.55;;;27.80;60.20;;;;;;5064086;28;20017;-45
2022/01/04 04:55:16;;;;;;;6.53;3.60;;;27.70;60.30;;;;;;5063923;28;20091;-46
2022/01/04 04:57:43;;;;;;;5.82;3.17;;;27.70;60.40;;;;;;5063846;28;20016;-43
2022/01/04 05:00:10;;;;;;;8.02;3.40;;;27.70;60.30;;;;;;5064399;28;20025;-41
2022/01/04 05:02:38;;;;;;;7.10;3.38;;;27.70;60.50;;;;;;5063851;28;20024;-46
2022/01/04 05:05:05;;;;;;;5.32;3.28;;;27.70;60.40;;;;;;5063591;28;20032;-44
2022/01/04 05:07:31;;;;;;;11.13;3.55;;;27.70;60.20;;;;;;5063697;28;20020;-48
2022/01/04 05:09:58;;;;;;;6.20;3.45;;;27.70;60.20;;;;;;5064233;28;20029;-48
2022/01/04 05:12:24;;;;;;;5.10;3.55;;;27.70;60.10;;;;;;5063698;28;20052;-46
2022/01/04 05:14:51;;;;;;;5.28;2.78;;;27.70;60.20;;;;;;5064229;28;20248;-53
2022/01/04 05:17:18;;;;;;;5.20;3.05;;;27.70;60.20;;;;;;5063648;28;20024;-43
2022/01/04 05:19:45;;;;;;;5.10;3.50;;;27.70;60.10;;;;;;5063926;28;20052;-44
2022/01/04 05:22:12;;;;;;;5.05;3.30;;;27.70;60.00;;;;;;5063716;28;20032;-44
2022/01/04 05:24:38;;;;;;;7.80;3.20;;;27.60;59.90;;;;;;5063538;28;20218;-49
2022/01/04 05:27:05;;;;;;;5.85;3.25;;;27.70;60.20;;;;;;5063495;28;20372;-51
2022/01/04 05:29:32;;;;;;;5.40;3.25;;;27.60;60.10;;;;;;5063966;28;20021;-48
2022/01/04 05:31:59;;;;;;;6.63;3.40;;;27.60;60.10;;;;;;5063415;28;20352;-49
2022/01/04 05:34:26;;;;;;;4.50;3.08;;;27.60;59.70;;;;;;5063859;28;20048;-45
2022/01/04 05:36:53;;;;;;;5.97;3.00;;;27.60;59.90;;;;;;5063720;28;20234;-44
2022/01/04 05:39:19;;;;;;;5.35;3.40;;;27.60;59.90;;;;;;5063771;28;20197;-50
2022/01/04 05:41:46;;;;;;;5.68;3.53;;;27.60;59.90;;;;;;5063646;28;20033;-45
2022/01/04 05:44:13;;;;;;;3.90;2.85;;;27.60;59.90;;;;;;5063645;28;20285;-43
2022/01/04 05:46:40;;;;;;;6.35;3.13;;;27.60;59.80;;;;;;5063439;28;20025;-50
2022/01/04 05:49:07;;;;;;;5.70;3.25;;;27.50;59.80;;;;;;5063641;28;20029;-48
2022/01/04 05:51:33;;;;;;;4.90;3.28;;;27.50;59.90;;;;;;5063276;28;20206;-44
2022/01/04 05:54:00;;;;;;;5.50;3.20;;;27.60;60.10;;;;;;5063577;28;20025;-46
2022/01/04 05:56:26;;;;;;;5.75;3.22;;;27.60;60.00;;;;;;5064298;28;20248;-43
2022/01/04 05:58:53;;;;;;;6.57;3.65;;;27.50;60.00;;;;;;5067265;28;20045;-44
2022/01/04 06:01:20;;;;;;;8.40;3.67;;;27.60;59.90;;;;;;5067443;28;20052;-48
2022/01/04 06:03:51;;;;;;;7.47;2.90;;;27.50;60.10;;;;;;5067241;28;20031;-43
2022/01/04 06:06:17;;;;;;;5.00;3.03;;;27.50;60.00;;;;;;5066925;28;20222;-44
2022/01/04 06:08:45;;;;;;;5.40;3.13;;;27.50;60.00;;;;;;5067070;28;20044;-42
2022/01/04 06:11:30;;;;;;;3.83;2.78;;;27.50;59.90;;;;;;5066977;28;20067;-47
2022/01/04 06:16:42;;;;;;;6.43;3.13;;;27.50;59.90;;;;;;5066721;28;20028;-49
2022/01/04 06:19:08;;;;;;;4.10;2.65;;;27.40;59.90;;;;;;5067012;28;20025;-47
2022/01/04 06:21:35;;;;;;;4.32;2.97;;;27.50;60.10;;;;;;5066799;28;20086;-45
2022/01/04 06:24:01;;;;;;;5.18;3.20;;;27.50;60.00;;;;;;5066841;28;20248;-49
2022/01/04 06:26:28;;;;;;;5.82;2.90;;;27.40;60.00;;;;;;5066837;28;20024;-48
2022/01/04 06:28:55;;;;;;;5.43;3.00;;;27.40;60.00;;;;;;5066718;28;20092;-44
2022/01/04 06:31:22;;;;;;;4.70;2.70;;;27.40;60.00;;;;;;5066365;28;20313;-47
2022/01/04 06:33:48;;;;;;;6.68;2.80;;;27.40;59.90;;;;;;5066686;28;20036;-46
2022/01/04 06:36:15;;;;;;;4.60;2.80;;;27.40;59.90;;;;;;5066509;28;20092;-48
2022/01/04 06:38:43;;;;;;;3.80;2.70;;;27.40;60.10;;;;;;5066418;28;20049;-47
2022/01/04 06:41:10;;;;;;;4.07;2.70;;;27.40;60.20;;;;;;5066445;28;20017;-48
2022/01/04 06:43:37;;;;;;;3.47;2.60;;;27.30;60.00;;;;;;5066475;28;20031;-48
2022/01/04 06:46:03;;;;;;;4.05;2.65;;;27.30;60.30;;;;;;5066189;28;20096;-48
2022/01/04 06:48:30;;;;;;;3.80;2.40;;;27.30;60.80;;;;;;5066164;28;20040;-46
2022/01/04 06:50:57;;;;;;;3.63;2.33;;;27.30;60.40;;;;;;5066259;28;20016;-46
2022/01/04 06:53:24;;;;;;;7.50;2.67;;;27.30;60.60;;;;;;5066146;28;20317;-49
2022/01/04 06:55:50;;;;;;;4.13;2.30;;;27.30;60.80;;;;;;5066257;28;20028;-45
2022/01/04 06:58:18;;;;;;;5.95;2.50;;;27.30;60.70;;;;;;5066142;28;20122;-51
2022/01/04 07:00:44;;;;;;;4.38;2.10;;;27.30;60.80;;;;;;5065463;28;20024;-47
2022/01/04 07:03:11;;;;;;;4.28;2.33;;;27.30;61.00;;;;;;5065843;28;20040;-44
2022/01/04 07:05:38;;;;;;;3.97;2.22;;;27.30;60.90;;;;;;5066070;28;20048;-48
2022/01/04 07:08:05;;;;;;;3.85;2.17;;;27.30;60.90;;;;;;5065586;28;20025;-43
2022/01/04 07:10:31;;;;;;;5.05;2.20;;;27.30;61.10;;;;;;5065823;28;20325;-44
2022/01/04 07:12:58;;;;;;;3.85;2.28;;;27.20;61.10;;;;;;5065738;28;20301;-44
2022/01/04 07:15:24;;;;;;;3.78;2.15;;;27.20;61.10;;;;;;5065841;28;20080;-54
2022/01/04 07:17:51;;;;;;;4.82;2.15;;;27.20;61.20;;;;;;5065486;28;20024;-46
2022/01/04 07:20:17;;;;;;;4.05;2.60;;;27.20;61.20;;;;;;5065698;28;20013;-50
2022/01/04 07:22:44;;;;;;;4.28;2.50;;;27.20;61.30;;;;;;5065665;28;20055;-43
2022/01/04 07:25:11;;;;;;;3.25;2.20;;;27.20;61.40;;;;;;5065997;28;20028;-44
2022/01/04 07:27:38;;;;;;;2.85;2.00;;;27.20;61.40;;;;;;5065602;28;20352;-46
2022/01/04 07:30:05;;;;;;;2.97;1.90;;;27.20;61.40;;;;;;5065944;28;20093;-45
2022/01/04 07:32:31;;;;;;;2.55;2.10;;;27.20;61.30;;;;;;5065236;28;20087;-44
2022/01/04 07:34:58;;;;;;;4.40;2.05;;;27.20;61.40;;;;;;5065400;28;20036;-48
2022/01/04 07:37:24;;;;;;;5.03;2.17;;;27.20;61.50;;;;;;5065407;28;20205;-44
2022/01/04 07:39:51;;;;;;;3.38;2.28;;;27.10;61.30;;;;;;5065627;28;20331;-52
2022/01/04 07:42:18;;;;;;;6.13;2.28;;;27.20;61.40;;;;;;5065206;28;20071;-53
2022/01/04 07:44:45;;;;;;;5.05;1.95;;;27.20;61.50;;;;;;5065214;28;20059;-54
2022/01/04 07:47:12;;;;;;;3.35;2.47;;;27.10;61.20;;;;;;5064969;28;20035;-46
2022/01/04 07:49:38;;;;;;;2.92;1.95;;;27.10;61.10;;;;;;5065483;28;20017;-52
2022/01/04 07:52:05;;;;;;;3.60;2.17;;;27.10;61.10;;;;;;5065086;28;20087;-46
2022/01/04 07:54:32;;;;;;;4.25;1.90;;;27.10;61.00;;;;;;5065257;28;20017;-49
2022/01/04 07:56:58;;;;;;;4.35;2.30;;;27.10;60.90;;;;;;5065229;28;20017;-50
2022/01/04 07:59:29;;;;;;;2.67;2.03;;;27.10;61.10;;;;;;5065236;28;20024;-47
2022/01/04 08:01:57;;;;;;;2.88;1.92;;;27.10;61.00;;;;;;5064742;28;20062;-46
2022/01/04 08:04:23;;;;;;;2.80;1.85;;;27.10;61.00;;;;;;5065095;28;20032;-51
2022/01/04 08:06:50;;;;;;;2.55;1.95;;;27.10;61.00;;;;;;5064832;28;20028;-53
2022/01/04 08:09:16;;;;;;;4.45;1.98;;;27.00;60.80;;;;;;5064747;28;20206;-46
2022/01/04 08:11:43;;;;;;;5.82;2.25;;;27.10;60.80;;;;;;5064702;28;20013;-42
2022/01/04 08:14:10;;;;;;;3.50;2.05;;;27.00;60.70;;;;;;5064868;28;20298;-53
2022/01/04 08:16:36;;;;;;;3.88;1.90;;;27.00;60.70;;;;;;5064436;28;20051;-56
2022/01/04 08:19:03;;;;;;;3.10;2.08;;;27.00;60.70;;;;;;5064235;28;20033;-44
2022/01/04 08:21:29;;;;;;;2.47;1.88;;;27.00;60.80;;;;;;5064515;28;20044;-51
2022/01/04 08:23:56;;;;;;;4.57;1.85;;;27.00;60.80;;;;;;5064585;28;20088;-45
2022/01/04 08:26:23;;;;;;;4.60;2.00;;;27.00;60.90;;;;;;5064466;28;20055;-47
2022/01/04 08:28:50;;;;;;;3.10;1.85;;;27.00;60.80;;;;;;5064462;28;20131;-44
2022/01/04 08:31:16;;;;;;;2.72;1.73;;;27.00;60.90;;;;;;5064112;28;20375;-53
2022/01/04 08:33:43;;;;;;;3.17;2.10;;;27.00;61.00;;;;;;5064539;28;20047;-44
2022/01/04 08:36:10;;;;;;;3.60;1.98;;;27.00;61.00;;;;;;5064235;28;20017;-51
2022/01/04 08:38:39;;;;;;;5.65;1.95;;;26.90;61.00;;;;;;5064277;28;20035;-48
2022/01/04 08:41:06;;;;;;;3.03;2.15;;;26.90;61.00;;;;;;5064162;28;20031;-45
2022/01/04 08:43:33;;;;;;;2.75;1.90;;;26.90;61.00;;;;;;5064214;28;20306;-48
2022/01/04 08:46:00;;;;;;;3.40;2.20;;;26.90;61.10;;;;;;5064067;28;20051;-52
2022/01/04 08:48:26;;;;;;;3.88;1.80;;;26.90;61.10;;;;;;5064201;28;20100;-48
2022/01/04 08:50:53;;;;;;;2.88;1.90;;;26.90;61.30;;;;;;5064040;28;20294;-49
2022/01/04 08:53:20;;;;;;;2.72;1.90;;;26.90;61.20;;;;;;5064176;28;20069;-50
2022/01/04 08:55:47;;;;;;;2.03;1.80;;;26.90;61.20;;;;;;5063839;28;20020;-49
2022/01/04 08:58:14;;;;;;;2.95;1.83;;;26.90;61.30;;;;;;5064241;28;20256;-48
2022/01/04 09:00:42;;;;;;;4.38;1.80;;;26.90;61.40;;;;;;5063951;28;20017;-50
2022/01/04 09:03:09;;;;;;;5.60;2.13;;;26.90;61.40;;;;;;5063754;28;20112;-42
2022/01/04 09:05:36;;;;;;;2.53;1.70;;;26.90;61.50;;;;;;5063845;28;20048;-47
2022/01/04 09:08:03;;;;;;;4.03;1.90;;;26.80;61.40;;;;;;5063761;28;20032;-45
2022/01/04 09:10:29;;;;;;;3.70;2.22;;;26.80;61.50;;;;;;5063690;28;20016;-48
2022/01/04 09:13:03;;;;;;;2.60;1.95;;;26.80;61.40;;;;;;5063849;28;20017;-44
2022/01/04 09:18:43;;;;;;;3.53;2.20;;;26.80;61.50;;;;;;5063681;28;20021;-50
2022/01/04 09:21:03;;;;;;;7.18;1.90;;;26.80;61.70;;;;;;5063633;28;20347;-46
2022/01/04 09:23:30;;;;;;;4.05;1.80;;;26.80;61.60;;;;;;5063645;28;20318;-50
2022/01/04 09:25:56;;;;;;;6.20;2.08;;;26.80;61.60;;;;;;5063610;28;20031;-44
2022/01/04 09:28:24;;;;;;;2.70;1.83;;;26.70;61.50;;;;;;5063512;28;20195;-43
2022/01/04 09:30:51;;;;;;;3.72;2.10;;;26.80;61.70;;;;;;5065326;28;20016;-46
2022/01/04 09:33:19;;;;;;;3.60;2.08;;;26.70;61.50;;;;;;5067543;28;20063;-52
2022/01/04 09:35:49;;;;;;;11.57;2.33;;;26.70;61.50;;;;;;5067474;28;20059;-51
2022/01/04 09:38:16;;;;;;;4.72;2.30;;;26.70;61.60;;;;;;5067575;28;20079;-49
2022/01/04 09:40:43;;;;;;;3.55;1.73;;;26.70;61.60;;;;;;5067546;28;20229;-46
2022/01/04 09:43:10;;;;;;;5.57;2.30;;;26.70;61.60;;;;;;5067502;28;20071;-51
2022/01/04 09:45:37;;;;;;;4.53;2.15;;;26.70;61.60;;;;;;5067580;28;20016;-46
2022/01/04 09:48:04;;;;;;;6.30;2.00;;;26.70;61.70;;;;;;5067297;28;20371;-46
2022/01/04 09:50:33;;;;;;;3.90;2.08;;;26.60;61.70;;;;;;5067279;28;20017;-49
2022/01/04 09:53:01;;;;;;;4.05;1.85;;;26.70;61.70;;;;;;5067356;28;20243;-51
2022/01/04 09:55:28;;;;;;;4.43;2.17;;;26.70;61.70;;;;;;5067201;28;20199;-47
2022/01/04 09:57:55;;;;;;;3.85;1.85;;;26.60;61.60;;;;;;5067219;28;20090;-50
2022/01/04 10:00:23;;;;;;;3.38;1.95;;;26.60;61.70;;;;;;5067214;28;20027;-44
2022/01/04 10:02:50;;;;;;;3.50;2.00;;;26.60;61.70;;;;;;5067121;28;20072;-48
2022/01/04 10:05:20;;;;;;;7.53;2.33;;;26.60;61.70;;;;;;5067403;28;20288;-51
2022/01/04 10:07:48;;;;;;;4.28;1.83;;;26.60;61.70;;;;;;5066970;28;20126;-49
2022/01/04 10:10:17;;;;;;;2.85;1.88;;;26.60;61.70;;;;;;5067344;28;20233;-52
2022/01/04 10:12:53;;;;;;;8.27;1.83;;;26.60;61.70;;;;;;5067271;28;20205;-47
2022/01/04 10:15:34;;;;;;;4.07;1.80;;;26.60;61.70;;;;;;5066919;28;20218;-47
2022/01/04 10:18:25;;;;;;;4.15;1.90;;;26.60;61.70;;;;;;5066740;28;20214;-51
2022/01/04 10:21:09;;;;;;;3.05;1.83;;;26.50;61.70;;;;;;5066280;28;20325;-45
2022/01/04 10:23:56;;;;;;;3.83;2.28;;;26.60;61.80;;;;;;5066697;28;20024;-44
2022/01/04 10:26:39;;;;;;;4.35;2.20;;;26.60;61.70;;;;;;5066720;28;20048;-54
2022/01/04 10:29:21;;;;;;;;;;;26.60;61.70;;;;;;5067194;28;20033;-44
2022/01/04 10:31:48;;;;;;;4.68;2.17;;;26.50;61.60;;;;;;5066572;28;19913;-46
2022/01/04 10:34:15;;;;;;;5.43;2.00;;;26.50;61.80;;;;;;5065537;28;20025;-45
2022/01/04 10:36:42;;;;;;;3.63;1.90;;;26.50;61.70;;;;;;5066342;28;20013;-44
2022/01/04 10:39:09;;;;;;;5.60;1.85;;;26.50;61.60;;;;;;5066738;28;20350;-46
2022/01/04 10:41:36;;;;;;;4.95;2.10;;;26.50;61.70;;;;;;5066117;28;20320;-44
2022/01/04 10:44:10;;;;;;;6.40;2.40;;;26.50;61.70;;;;;;5066214;28;20197;-49
2022/01/04 10:46:43;;;;;;;4.57;2.08;;;26.50;61.60;;;;;;5066298;28;20021;-47
2022/01/04 10:49:24;;;;;;;5.70;2.40;;;26.50;61.70;;;;;;5066322;28;20036;-51
2022/01/04 10:52:08;;;;;;;3.75;2.00;;;26.50;61.50;;;;;;5066221;28;20063;-45
2022/01/04 10:54:35;;;;;;;5.82;2.05;;;26.50;61.60;;;;;;5066434;28;20178;-43
2022/01/04 10:57:07;;;;;;;7.30;2.22;;;26.50;61.40;;;;;;5065996;28;20306;-44
2022/01/04 10:59:34;;;;;;;6.97;2.63;;;26.40;61.40;;;;;;5066460;28;20039;-54
2022/01/04 11:02:01;;;;;;;5.75;2.00;;;26.40;61.10;;;;;;5065879;28;20021;-47
2022/01/04 11:04:27;;;;;;;4.47;2.40;;;26.40;61.00;;;;;;5065933;28;20025;-47
2022/01/04 11:07:02;;;;;;;11.02;2.55;;;26.40;59.80;;;;;;5065923;28;20253;-49
2022/01/04 11:09:30;;;;;;;11.63;3.30;;;26.40;58.30;;;;;;5066218;28;20288;-42
2022/01/04 11:11:57;;;;;;;12.98;3.70;;;26.30;58.10;;;;;;5065790;28;20024;-49
2022/01/04 11:14:26;;;;;;;14.80;3.33;;;26.30;58.10;;;;;;5066001;28;20052;-46
2022/01/04 11:16:54;;;;;;;7.72;3.20;;;26.30;58.20;;;;;;5065655;28;20045;-48
2022/01/04 11:19:20;;;;;;;13.55;3.25;;;26.30;57.90;;;;;;5066083;28;20025;-43
2022/01/04 11:21:49;;;;;;;24.42;3.63;;;26.30;57.70;;;;;;5065652;28;20016;-53
2022/01/04 11:24:19;;;;;;;22.17;3.50;;;26.20;57.80;;;;;;5065885;28;20028;-49
2022/01/04 11:26:48;;;;;;;25.13;3.63;;;26.20;57.70;;;;;;5065577;28;20033;-51
2022/01/04 11:29:17;;;;;;;9.95;2.92;;;26.20;58.10;;;;;;5065902;28;20032;-47
2022/01/04 11:32:22;;;;;;;16.08;3.47;;;26.20;58.40;;;;;;5065425;28;20041;-47
2022/01/04 11:35:12;;;;;;;12.93;3.30;;;26.20;58.60;;;;;;5004203;28;20030;-46
2022/01/04 11:37:42;;;;;;;11.75;3.20;;;26.20;58.70;;;;;;5004178;28;20349;-53
2022/01/04 11:40:26;;;;;;;23.88;3.90;;;26.20;58.90;;;;;;5044290;28;20041;-52
2022/01/04 11:42:54;;;;;;;13.90;3.58;;;26.20;58.80;;;;;;5063359;28;20025;-52
2022/01/04 11:45:48;;;;;;;21.88;3.97;;;26.20;59.00;;;;;;5063554;28;20021;-49
2022/01/04 11:48:45;;;;;;;13.02;3.60;;;26.20;59.00;;;;;;5063209;28;20099;-49
2022/01/04 11:51:30;;;;;;;12.43;3.20;;;26.30;59.20;;;;;;5050905;28;20092;-49
2022/01/04 11:54:19;;;;;;;13.27;3.42;;;26.30;59.30;;;;;;5062481;28;20049;-48
2022/01/04 11:57:09;;;;;;;14.65;3.30;;;26.30;59.60;;;;;;5055486;28;20067;-51
2022/01/04 11:59:45;;;;;;;13.93;3.58;;;26.30;59.80;;;;;;5064128;28;20051;-47
2022/01/04 12:02:35;;;;;;;19.05;3.90;;;26.30;59.90;;;;;;5064936;28;20327;-46
2022/01/04 12:05:04;;;;;;;29.65;5.18;;;26.30;60.20;;;;;;5064688;28;20095;-49
2022/01/04 12:07:44;;;;;;;19.85;4.95;;;26.30;60.40;;;;;;5064749;28;20020;-52
2022/01/04 12:10:20;;;;;;;30.95;4.82;;;26.30;60.60;;;;;;5065204;28;20028;-52
2022/01/04 12:13:01;;;;;;;28.58;4.88;;;26.30;60.40;;;;;;5064642;28;20336;-51
2022/01/04 12:15:33;;;;;;;26.90;4.88;;;26.30;60.50;;;;;;5064597;28;20229;-47
2022/01/04 12:18:06;;;;;;;23.95;4.72;;;26.30;60.80;;;;;;5064688;28;20028;-48
2022/01/04 12:20:45;;;;;;;28.20;5.53;;;26.30;60.80;;;;;;5064570;28;20082;-47
2022/01/04 12:23:37;;;;;;;24.55;5.00;;;26.30;60.80;;;;;;5064535;28;20044;-54
2022/01/04 12:26:06;;;;;;;27.00;5.05;;;26.30;60.90;;;;;;5056308;28;20203;-48
2022/01/04 12:28:38;;;;;;;19.65;4.63;;;26.30;61.20;;;;;;5064391;28;20052;-50
2022/01/04 12:31:28;;;;;;;23.13;5.25;;;26.30;61.30;;;;;;5064281;28;20063;-50
2022/01/04 12:34:28;;;;;;;16.95;4.35;;;26.30;61.40;;;;;;5056394;28;20052;-46
2022/01/04 12:36:55;;;;;;;22.08;5.20;;;26.30;61.50;;;;;;5064234;28;20013;-46
2022/01/04 12:39:29;;;;;;;17.70;4.97;;;26.30;61.60;;;;;;5064521;28;20033;-49
2022/01/04 12:41:56;;;;;;;21.30;5.38;;;26.30;61.70;;;;;;5064087;28;20229;-46
2022/01/04 12:44:24;;;;;;;20.27;5.28;;;26.30;61.80;;;;;;5064540;28;20033;-51
2022/01/04 12:46:52;;;;;;;16.60;5.03;;;26.30;61.90;;;;;;5064181;28;20020;-46
2022/01/04 12:49:21;;;;;;;22.42;6.05;;;26.30;62.10;;;;;;5064166;28;20033;-46
2022/01/04 12:51:59;;;;;;;18.67;5.25;;;26.40;62.40;;;;;;5064043;28;20016;-51
2022/01/04 12:54:40;;;;;;;23.38;5.45;;;26.30;62.60;;;;;;5059448;28;20067;-48
2022/01/04 12:57:15;;;;;;;20.13;4.70;;;26.40;62.70;;;;;;5064235;28;20041;-43
2022/01/04 12:59:51;;;;;;;25.73;4.75;;;26.40;62.80;;;;;;5064283;28;20048;-49
2022/01/04 13:02:21;;;;;;;21.83;4.75;;;26.40;62.90;;;;;;5063854;28;20306;-45